Pagrindinis puslapis
METAR-TAF:

METAR-TAF

Oro uostai :

Cape Lisburne, Aliaska, Jungtinės Amerikos Valstijos

platuma: 68-53N, ilguma: 166-06W, Aukštis: 4 m

Dabartinis oras

Ataskaita buvo paskelbta 22 minutes, ne 06:22 UTC
Vėjas 8 kt iš Vakarų su gūsio iki 24 kt, svyruoja nuo Pietų ir Šiaurės/Šiaurės Vakarų
Temperatūra -23°C
Drėgmė 76%
Slėgis 1018 hPa
Matomumas: 16.1 km
Su prošvaistėmis ne aukštis 7500 ft
sniegas

METAR: PALU 280622Z AUTO 28008G24KT 190V330 10SM -SHSN BKN075 M23/M26 A3005 RMK AO2 SLP176

Laikas: 21:44 (06:44 UTC)


TAF: trūkstamas

Orai ataskaitas ir orų prognozės (METAR, TAF).

turimą stotys yra geltonos ir raudonos taškus žemėlapyje.

Perkelti pele per norėdami pamatyti stoties vardą.

Tada spustelėkite, norėdami matyti oro stebėjimo ir prognozės.

Norėdami pakeisti žemėlapį: spustelėkite ant žalios mygtukų su juodo kryžiaus žemyn,; žalią mygtuką su brūkšneliu, jei norite nutolinti; arba žalių rodyklių gretimoms žemėlapius.


METAR-TAF: